Aérodrome :
LOGIN :

S'inscrire | Disclaimer

   EN    FR    IT 

 










Légende :    VFR   VFR Marginal   IFR   IFR Intensif   IFR Très Intensif
Visi : 
Plafond : 
>= 8 km
>= 3000ft
5 à 8 km
1000 à 3000 ft
1500m à 5 km
500 à 1000 ft
800 à 1500m
200 à 500 ft
< 800m
< 200 ft
Symboles :   Orages  Brouillard  Fortes neiges  Fortes précipitations  Vent > 20 kt
SIGMETs :   Divers  Orages  Givrage  Turbulence  Onde Orograph.  Cendres Volcan.






- Altitude de l'aérodrome : 135 ft
- Code IATA : TLV


LLBG - Ben Gurion

DERNIER METAR :
  • 200750Z 18008KT 9999 SCT017 BKN050 12/10 Q1024 TEMPO 8000 RA FEW015 BKN025

METARs EXPIRÉS :
  • 200720Z 17006KT 9999 FEW013 SCT017 BKN047 12/10 Q1024 TEMPO 8000 RA FEW015 BKN025
  • 200650Z 16006KT 6000 FEW011 FEW018TCU BKN025 12/10 Q1024 RERA NOSIG
  • 200620Z 28007KT 3000 RA FEW006 FEW018TCU BKN020 11/10 Q1023 NOSIG
  • 200550Z 18011KT 9000 FEW033 12/10 Q1023 TEMPO 3000 RA SCT005 FEW015TCU BKN025 RMK SCT064 BKN079 RERA
  • 200520Z 19008KT 7000 -RA FEW006 SCT021 11/10 Q1023 RERA TEMPO 3000 RA SCT005 BKN015 RMK BKN060

TAF TAF LLBG
Valide du 20 à 06h jusqu'au 21 à 06h UTC


200505Z 2006/2106 19010KT 9999 SCT030
TEMPO 2006/2011 23015KT 5000 RA FEW015 FEW020TCU BKN025
BECMG 2011/2013 26013KT
TEMPO 2013/2023 24006KT 8000 RA FEW020TCU BKN025
BECMG 2023/2101 31007KT 8000 FEW015 SCT020
PROB40 2101/2106 VRB04KT 6000 -RA SCT010 BKN025 TX14/2012Z TN09/2104Z



MET'MAP, la Météo Aéronautique d'un coup d'oeil ! - Copyright ORBIFLY Décembre 2007 - Disclaimer

ORBIFLY MET'MAP TEAM :

Programmation & Développement : Alexandra Zaïnal
Sur une idée originale de : Baudouin d'Aumeries
Assistance à la programmation : Marc-Olivier Méhu
Soutien technique & logistique : Manuel Goepfert

Contact : metmap@orbifly.com




SOURCES & CREDITS :

   NOAA